createdAt,value
2022-12-14T00:01:28.091Z,135.30
2022-12-14T00:03:56.428Z,129.30
2022-12-14T00:06:33.067Z,141.90
2022-12-14T00:09:02.247Z,140.35
2022-12-14T00:11:29.456Z,136.57
2022-12-14T00:14:01.767Z,134.18
2022-12-14T00:16:30.914Z,139.75
2022-12-14T00:18:59.320Z,142.10
2022-12-14T00:21:26.708Z,147.23
2022-12-14T00:23:54.464Z,145.25
2022-12-14T00:26:24.812Z,151.63
2022-12-14T00:28:54.088Z,147.68
2022-12-14T00:31:21.928Z,148.35
2022-12-14T00:33:50.449Z,137.25
2022-12-14T00:36:17.517Z,136.70
2022-12-14T00:38:44.676Z,143.55
2022-12-14T00:41:11.521Z,140.68
2022-12-14T00:43:38.202Z,141.40
2022-12-14T00:46:05.079Z,134.38
2022-12-14T00:48:32.360Z,121.40
2022-12-14T00:50:59.431Z,138.98
2022-12-14T00:53:26.210Z,132.15
2022-12-14T00:55:52.914Z,138.27
2022-12-14T00:58:22.508Z,134.35
2022-12-14T01:00:59.513Z,134.90
2022-12-14T01:03:26.843Z,138.73
2022-12-14T01:05:53.789Z,128.93
2022-12-14T01:08:21.156Z,145.10
2022-12-14T01:10:47.835Z,126.93
2022-12-14T01:13:14.531Z,122.05
2022-12-14T01:15:41.252Z,146.57
2022-12-14T01:18:07.963Z,126.47
2022-12-14T01:20:34.631Z,119.68
2022-12-14T01:23:01.290Z,133.68
2022-12-14T01:25:28.296Z,149.25
2022-12-14T01:27:54.914Z,125.55
2022-12-14T01:30:21.808Z,144.32
2022-12-14T01:32:48.603Z,148.02
2022-12-14T01:35:15.393Z,147.35
2022-12-14T01:37:42.026Z,124.55
2022-12-14T01:40:09.118Z,126.68
2022-12-14T01:42:36.762Z,121.55
2022-12-14T01:45:04.706Z,131.75
2022-12-14T01:47:42.164Z,128.13
2022-12-14T01:50:16.450Z,124.78
2022-12-14T01:52:47.217Z,126.90
2022-12-14T01:55:25.005Z,125.25
2022-12-14T01:58:04.775Z,142.23
2022-12-14T02:00:31.552Z,122.30
2022-12-14T02:03:12.685Z,135.95
2022-12-14T02:05:43.582Z,128.32
2022-12-14T02:08:11.343Z,125.30
2022-12-14T02:10:38.349Z,131.27
2022-12-14T02:13:16.312Z,144.38
2022-12-14T02:15:44.164Z,148.40
2022-12-14T02:18:18.369Z,153.93
2022-12-14T02:21:10.325Z,144.57
2022-12-14T02:24:19.160Z,135.20
2022-12-14T02:27:10.030Z,135.13
2022-12-14T02:30:08.897Z,130.95
2022-12-14T02:32:42.422Z,129.43
2022-12-14T02:35:26.183Z,130.32
2022-12-14T02:38:11.048Z,134.52
2022-12-14T02:40:56.061Z,125.25
2022-12-14T02:43:31.378Z,136.50
2022-12-14T02:46:29.617Z,137.33
2022-12-14T02:49:06.649Z,142.75
2022-12-14T02:51:54.644Z,117.55
2022-12-14T02:54:30.075Z,137.20
2022-12-14T02:57:13.571Z,139.93
2022-12-14T02:59:42.740Z,122.15
2022-12-14T03:02:11.018Z,134.15
2022-12-14T03:04:45.981Z,121.28
2022-12-14T03:07:51.180Z,140.45
2022-12-14T03:10:50.083Z,126.93
2022-12-14T03:13:20.790Z,127.28
2022-12-14T03:16:10.636Z,142.32
2022-12-14T03:18:54.898Z,135.57
2022-12-14T03:21:26.589Z,140.00
2022-12-14T03:23:56.184Z,140.38
2022-12-14T03:26:29.942Z,132.07
2022-12-14T03:29:05.207Z,121.43
2022-12-14T03:31:40.033Z,126.53
2022-12-14T03:34:13.189Z,114.07
2022-12-14T03:36:55.292Z,137.52
2022-12-14T03:39:29.162Z,136.50
2022-12-14T03:41:55.726Z,128.70
2022-12-14T03:44:25.355Z,131.25
2022-12-14T03:47:13.170Z,126.10
2022-12-14T03:49:49.237Z,133.38
2022-12-14T03:52:32.155Z,137.88
2022-12-14T03:54:58.747Z,125.43
2022-12-14T03:57:52.911Z,122.63
2022-12-14T04:00:23.440Z,137.32
2022-12-14T04:03:20.012Z,122.80
2022-12-14T04:05:52.688Z,146.05
2022-12-14T04:08:41.843Z,132.82
2022-12-14T04:11:30.778Z,116.65
2022-12-14T04:14:25.214Z,122.85
2022-12-14T04:17:13.850Z,127.63
2022-12-14T04:19:54.195Z,126.28
2022-12-14T04:22:29.023Z,138.23
2022-12-14T04:25:24.913Z,131.60
2022-12-14T04:27:58.133Z,127.07
2022-12-14T04:30:24.779Z,133.95
2022-12-14T04:32:54.041Z,125.45
2022-12-14T04:35:27.494Z,135.57
2022-12-14T04:38:08.386Z,124.20
2022-12-14T04:41:01.441Z,119.82
2022-12-14T04:43:31.698Z,125.15
2022-12-14T04:46:05.261Z,137.02
2022-12-14T04:48:48.771Z,131.98
2022-12-14T04:51:21.998Z,132.43
2022-12-14T04:53:53.390Z,122.32
2022-12-14T04:56:26.014Z,151.32
2022-12-14T04:58:52.815Z,122.82
2022-12-14T05:01:31.749Z,143.32
2022-12-14T05:04:24.842Z,123.50
2022-12-14T05:06:54.271Z,128.88
2022-12-14T05:09:29.142Z,133.23
2022-12-14T05:11:55.760Z,129.90
2022-12-14T05:14:40.639Z,153.60
2022-12-14T05:17:09.450Z,146.50
2022-12-14T05:19:37.363Z,125.82
2022-12-14T05:22:08.387Z,133.02
2022-12-14T05:24:35.347Z,145.98
2022-12-14T05:27:02.015Z,131.20
2022-12-14T05:29:28.791Z,142.07
2022-12-14T05:31:55.529Z,139.00
2022-12-14T05:34:22.575Z,155.93
2022-12-14T05:36:49.346Z,141.98
2022-12-14T05:39:16.857Z,141.15
2022-12-14T05:41:43.910Z,153.45
2022-12-14T05:44:11.303Z,132.48
2022-12-14T05:46:38.273Z,139.43
2022-12-14T05:49:04.961Z,130.32
2022-12-14T05:51:31.812Z,145.25
2022-12-14T05:53:59.079Z,154.63
2022-12-14T05:56:25.986Z,144.00
2022-12-14T05:58:52.655Z,145.02
2022-12-14T06:01:20.018Z,147.93
2022-12-14T06:03:47.068Z,137.23
2022-12-14T06:06:14.911Z,137.68
2022-12-14T06:08:44.205Z,129.30
2022-12-14T06:11:13.318Z,150.25
2022-12-14T06:13:41.270Z,143.82
2022-12-14T06:16:18.519Z,142.80
2022-12-14T06:18:47.962Z,151.55
2022-12-14T06:21:15.840Z,145.25
2022-12-14T06:23:42.684Z,137.30
2022-12-14T06:26:10.762Z,132.13
2022-12-14T06:28:38.188Z,134.02
2022-12-14T06:31:06.030Z,142.13
2022-12-14T06:33:35.048Z,135.98
2022-12-14T06:36:03.032Z,137.70
2022-12-14T06:38:29.922Z,144.82
2022-12-14T06:40:56.636Z,132.40
2022-12-14T06:43:26.889Z,130.20
2022-12-14T06:45:54.717Z,134.20
2022-12-14T06:48:21.672Z,134.13
2022-12-14T06:50:48.815Z,140.00
2022-12-14T06:53:15.509Z,144.45
2022-12-14T06:55:42.171Z,152.70
2022-12-14T06:58:13.796Z,126.15
2022-12-14T07:00:40.592Z,142.35
2022-12-14T07:03:09.825Z,125.22
2022-12-14T07:05:37.005Z,134.82
2022-12-14T07:08:04.350Z,127.32
2022-12-14T07:10:31.016Z,137.10
2022-12-14T07:12:57.778Z,138.90
2022-12-14T07:15:24.454Z,129.82
2022-12-14T07:17:51.158Z,133.98
2022-12-14T07:20:17.849Z,134.93
2022-12-14T07:22:44.979Z,132.10
2022-12-14T07:25:16.141Z,125.30
2022-12-14T07:27:42.779Z,127.40
2022-12-14T07:30:10.034Z,133.23
2022-12-14T07:32:36.695Z,131.63
2022-12-14T07:35:03.428Z,133.00
2022-12-14T07:37:30.119Z,136.95
2022-12-14T07:39:56.856Z,139.38
2022-12-14T07:42:24.867Z,134.13
2022-12-14T07:44:51.843Z,130.35
2022-12-14T07:47:18.521Z,136.80
2022-12-14T07:49:45.150Z,131.77
2022-12-14T07:52:11.861Z,130.70
2022-12-14T07:54:38.594Z,135.32
2022-12-14T07:57:05.222Z,137.07
2022-12-14T07:59:31.911Z,130.30
2022-12-14T08:01:58.713Z,140.43
2022-12-14T08:04:25.497Z,127.10
2022-12-14T08:06:52.850Z,140.60
2022-12-14T08:09:20.301Z,135.75
2022-12-14T08:11:47.223Z,135.57
2022-12-14T08:14:17.337Z,141.98
2022-12-14T08:16:44.867Z,150.23
2022-12-14T08:19:12.489Z,148.73
2022-12-14T08:21:40.084Z,142.52
2022-12-14T08:24:07.124Z,138.02
2022-12-14T08:26:36.071Z,129.82
2022-12-14T08:29:04.181Z,131.57
2022-12-14T08:31:32.153Z,129.05
2022-12-14T08:34:00.403Z,143.10
2022-12-14T08:36:29.622Z,141.13
2022-12-14T08:39:01.450Z,147.18
2022-12-14T08:41:28.983Z,147.98
2022-12-14T08:43:58.601Z,149.93
2022-12-14T08:46:26.957Z,150.02
2022-12-14T08:48:55.442Z,147.43
2022-12-14T08:51:23.565Z,144.02
2022-12-14T08:53:51.278Z,133.73
2022-12-14T08:56:21.161Z,144.93
2022-12-14T08:58:48.197Z,149.07
2022-12-14T09:01:20.058Z,144.07
2022-12-14T09:03:47.727Z,141.65
2022-12-14T09:06:20.648Z,143.20
2022-12-14T09:08:49.747Z,147.30
2022-12-14T09:11:19.006Z,137.32
2022-12-14T09:13:46.712Z,151.85
2022-12-14T09:16:16.647Z,148.05
2022-12-14T09:18:44.506Z,138.82
2022-12-14T09:21:11.525Z,144.10
2022-12-14T09:23:39.097Z,150.63
2022-12-14T09:26:08.624Z,145.55
2022-12-14T09:28:37.565Z,140.65
2022-12-14T09:31:07.095Z,146.15
2022-12-14T09:33:34.512Z,152.68
2022-12-14T09:36:16.431Z,147.80
2022-12-14T09:38:50.469Z,141.73
2022-12-14T09:41:30.391Z,148.02
2022-12-14T09:44:17.724Z,144.82
2022-12-14T09:46:57.368Z,152.85
2022-12-14T09:49:30.767Z,140.60
2022-12-14T09:52:03.643Z,153.15
2022-12-14T09:54:37.059Z,158.40
2022-12-14T09:57:21.300Z,145.68
2022-12-14T09:59:48.131Z,155.48
2022-12-14T10:02:34.167Z,148.27
2022-12-14T10:05:17.156Z,141.00
2022-12-14T10:08:08.498Z,140.55
2022-12-14T10:10:44.188Z,156.85
2022-12-14T10:13:38.192Z,147.32
2022-12-14T10:16:39.060Z,148.57
2022-12-14T10:19:17.903Z,141.82
2022-12-14T10:22:16.101Z,137.73
2022-12-14T10:24:46.110Z,140.20
2022-12-14T10:27:22.248Z,134.63
2022-12-14T10:30:00.307Z,133.23
2022-12-14T10:32:35.150Z,141.73
2022-12-14T10:35:28.895Z,147.45
2022-12-14T10:38:06.321Z,136.20
2022-12-14T10:40:35.234Z,138.68
2022-12-14T10:43:23.220Z,141.07
2022-12-14T10:46:18.983Z,154.02
2022-12-14T10:49:14.155Z,140.30
2022-12-14T10:51:50.033Z,146.65
2022-12-14T10:54:32.471Z,140.65
2022-12-14T10:56:59.585Z,141.13
2022-12-14T10:59:40.743Z,140.48
2022-12-14T11:02:23.163Z,147.18
2022-12-14T11:05:12.111Z,150.00
2022-12-14T11:07:40.551Z,137.18
2022-12-14T11:10:28.940Z,154.27
2022-12-14T11:12:55.530Z,154.27
2022-12-14T11:15:32.521Z,142.55
2022-12-14T11:18:15.853Z,144.65
2022-12-14T11:21:03.386Z,150.13
2022-12-14T11:23:37.887Z,151.50
2022-12-14T11:26:32.679Z,141.93
2022-12-14T11:29:02.117Z,151.15
2022-12-14T11:31:39.777Z,148.00
2022-12-14T11:34:39.115Z,153.93
2022-12-14T11:37:30.892Z,147.30
2022-12-14T11:40:00.782Z,140.02
2022-12-14T11:42:28.758Z,142.20
2022-12-14T11:45:15.680Z,156.15
2022-12-14T11:47:42.302Z,155.65
2022-12-14T11:50:23.851Z,156.73
2022-12-14T11:52:50.569Z,146.70
2022-12-14T11:55:26.805Z,156.90
2022-12-14T11:58:00.808Z,145.75
2022-12-14T12:00:51.387Z,149.10
2022-12-14T12:03:37.991Z,158.38
2022-12-14T12:08:36.581Z,151.40
2022-12-14T12:11:15.724Z,147.10
2022-12-14T12:13:45.553Z,153.55
2022-12-14T12:16:18.076Z,156.23
2022-12-14T12:18:49.501Z,154.30
2022-12-14T12:21:41.049Z,160.63
2022-12-14T12:24:27.110Z,150.70
2022-12-14T12:26:58.991Z,154.23
2022-12-14T12:29:31.564Z,144.93
2022-12-14T12:32:03.832Z,143.45
2022-12-14T12:35:01.363Z,157.43
2022-12-14T12:37:45.324Z,145.57
2022-12-14T12:40:22.312Z,153.90
2022-12-14T12:43:03.626Z,158.88
2022-12-14T12:45:55.224Z,149.40
2022-12-14T12:48:49.539Z,152.40
2022-12-14T12:51:22.325Z,151.57
2022-12-14T12:53:56.553Z,153.95
2022-12-14T12:56:48.367Z,163.93
2022-12-14T12:59:26.011Z,159.23
2022-12-14T13:01:57.493Z,157.80
2022-12-14T13:04:40.478Z,172.60
2022-12-14T13:07:14.464Z,155.88
2022-12-14T13:09:43.106Z,160.95
2022-12-14T13:12:37.116Z,171.77
2022-12-14T13:15:13.838Z,167.80
2022-12-14T13:17:49.407Z,152.98
2022-12-14T13:20:24.832Z,162.85
2022-12-14T13:22:52.399Z,157.50
2022-12-14T13:25:26.462Z,158.20
2022-12-14T13:28:05.499Z,164.80
2022-12-14T13:30:50.567Z,154.70
2022-12-14T13:33:45.742Z,159.57
2022-12-14T13:37:05.313Z,156.70
2022-12-14T13:39:53.873Z,157.75
2022-12-14T13:42:45.360Z,161.20
2022-12-14T13:45:21.554Z,159.23
2022-12-14T13:50:37.780Z,153.95
2022-12-14T13:53:44.133Z,167.60
2022-12-14T13:56:40.067Z,157.90
2022-12-14T13:59:38.189Z,164.32
2022-12-14T14:05:47.595Z,151.43
2022-12-14T14:09:15.647Z,159.32
2022-12-14T14:12:26.192Z,156.48
2022-12-14T14:15:02.147Z,170.15
2022-12-14T14:18:13.649Z,164.43
2022-12-14T14:20:53.780Z,155.52
2022-12-14T14:23:30.104Z,158.18
2022-12-14T14:26:35.749Z,171.20
2022-12-14T14:29:34.522Z,154.00
2022-12-14T14:32:32.587Z,163.38
2022-12-14T14:35:51.917Z,163.30
2022-12-14T14:38:42.693Z,169.20
2022-12-14T14:41:29.086Z,158.27
2022-12-14T14:44:09.774Z,160.18
2022-12-14T14:46:51.967Z,156.02
2022-12-14T14:49:24.721Z,157.15
2022-12-14T14:51:54.240Z,158.70
2022-12-14T14:54:54.028Z,174.00
2022-12-14T14:58:06.055Z,171.95
2022-12-14T15:01:26.926Z,155.98
2022-12-14T15:04:15.710Z,157.32
2022-12-14T15:06:58.922Z,160.68
2022-12-14T15:10:06.795Z,165.75
2022-12-14T15:12:50.232Z,164.32
2022-12-14T15:15:51.690Z,156.82
2022-12-14T15:18:32.284Z,160.50
2022-12-14T15:21:39.353Z,166.85
2022-12-14T15:24:21.853Z,159.80
2022-12-14T15:26:51.569Z,165.20
2022-12-14T15:29:29.656Z,158.57
2022-12-14T15:32:22.156Z,158.18
2022-12-14T15:36:06.232Z,165.18
2022-12-14T15:38:55.271Z,169.50
2022-12-14T15:41:28.276Z,161.65
2022-12-14T15:43:59.833Z,166.50
2022-12-14T15:46:33.629Z,157.38
2022-12-14T15:49:34.487Z,151.77
2022-12-14T15:52:16.593Z,149.38
2022-12-14T15:54:43.654Z,165.20
2022-12-14T15:57:36.232Z,158.55
2022-12-14T16:00:10.758Z,166.52
2022-12-14T16:02:59.657Z,166.60
2022-12-14T16:05:29.575Z,159.38
2022-12-14T16:07:57.911Z,160.15
2022-12-14T16:10:35.579Z,164.15
2022-12-14T16:13:48.469Z,165.02
2022-12-14T16:16:19.175Z,154.13
2022-12-14T16:19:08.658Z,168.32
2022-12-14T16:21:51.933Z,156.35
2022-12-14T16:24:29.304Z,153.05
2022-12-14T16:27:25.530Z,161.43
2022-12-14T16:30:33.996Z,164.10
2022-12-14T16:33:24.600Z,161.40
2022-12-14T16:36:05.077Z,155.35
2022-12-14T16:38:41.511Z,152.60
2022-12-14T16:43:36.790Z,163.45
2022-12-14T16:46:17.493Z,162.30
2022-12-14T16:48:50.414Z,171.48
2022-12-14T16:51:18.657Z,158.95
2022-12-14T16:53:57.385Z,167.38
2022-12-14T16:56:46.647Z,181.00
2022-12-14T16:59:35.821Z,181.07
2022-12-14T17:02:06.127Z,165.32
2022-12-14T17:05:02.152Z,170.02
2022-12-14T17:07:31.661Z,170.73
2022-12-14T17:09:59.169Z,183.82
2022-12-14T17:12:28.524Z,179.25
2022-12-14T17:14:55.350Z,169.20
2022-12-14T17:17:31.842Z,178.77
2022-12-14T17:20:19.056Z,170.88
2022-12-14T17:22:50.558Z,184.77
2022-12-14T17:25:27.644Z,179.15
2022-12-14T17:27:57.855Z,175.73
2022-12-14T17:30:30.898Z,193.07
2022-12-14T17:32:58.014Z,187.40
2022-12-14T17:35:32.279Z,181.82
2022-12-14T17:37:59.738Z,187.30
2022-12-14T17:40:27.835Z,178.73
2022-12-14T17:42:57.413Z,163.25
2022-12-14T17:45:29.551Z,175.35
2022-12-14T17:47:57.067Z,181.85
2022-12-14T17:50:25.268Z,162.98
2022-12-14T17:52:52.220Z,174.63
2022-12-14T17:55:24.626Z,167.05
2022-12-14T17:57:52.228Z,170.90
2022-12-14T18:00:43.352Z,168.55
2022-12-14T18:03:11.810Z,158.82
2022-12-14T18:05:44.926Z,164.95
2022-12-14T18:10:41.835Z,150.00
2022-12-14T18:13:10.263Z,159.82
2022-12-14T18:15:42.951Z,152.85
2022-12-14T18:18:09.640Z,160.27
2022-12-14T18:20:38.254Z,152.05
2022-12-14T18:23:04.890Z,156.35
2022-12-14T18:25:34.824Z,163.50
2022-12-14T18:28:04.739Z,170.45
2022-12-14T18:30:39.493Z,154.70
2022-12-14T18:33:21.145Z,153.82
2022-12-14T18:35:49.595Z,157.18
2022-12-14T18:38:16.657Z,158.98
2022-12-14T18:40:49.700Z,155.60
2022-12-14T18:43:23.747Z,161.57
2022-12-14T18:45:52.263Z,162.55
2022-12-14T18:48:19.284Z,159.35
2022-12-14T18:50:49.732Z,144.02
2022-12-14T18:53:18.908Z,154.35
2022-12-14T18:55:46.229Z,164.73
2022-12-14T18:58:31.039Z,151.95
2022-12-14T19:00:59.623Z,150.32
2022-12-14T19:03:29.321Z,150.30
2022-12-14T19:06:42.316Z,143.45
2022-12-14T19:08:54.884Z,149.38
2022-12-14T19:11:33.196Z,149.27
2022-12-14T19:16:28.139Z,141.25
2022-12-14T19:18:55.062Z,149.55
2022-12-14T19:21:21.775Z,147.52
2022-12-14T19:23:48.466Z,151.27
2022-12-14T19:26:18.062Z,144.52
2022-12-14T19:28:44.779Z,144.82
2022-12-14T19:31:17.663Z,149.57
2022-12-14T19:33:44.383Z,150.40
2022-12-14T19:36:12.517Z,144.70
2022-12-14T19:38:42.012Z,136.40
2022-12-14T19:41:12.103Z,147.65
2022-12-14T19:43:39.200Z,139.10
2022-12-14T19:46:16.236Z,148.55
2022-12-14T19:48:44.439Z,149.65
2022-12-14T19:51:15.815Z,151.02
2022-12-14T19:53:44.530Z,157.25
2022-12-14T19:56:14.384Z,153.75
2022-12-14T19:58:41.157Z,163.60
2022-12-14T20:01:09.365Z,156.52
2022-12-14T20:03:37.401Z,149.85
2022-12-14T20:06:05.373Z,152.18
2022-12-14T20:08:33.990Z,149.02
2022-12-14T20:11:06.120Z,152.48
2022-12-14T20:13:33.411Z,157.65
2022-12-14T20:16:02.006Z,161.95
2022-12-14T20:18:30.912Z,162.07
2022-12-14T20:21:09.759Z,177.35
2022-12-14T20:23:39.971Z,158.65
2022-12-14T20:26:13.750Z,171.10
2022-12-14T20:28:42.891Z,157.38
2022-12-14T20:31:10.729Z,147.30
2022-12-14T20:33:40.078Z,152.80
2022-12-14T20:36:11.105Z,159.13
2022-12-14T20:38:39.599Z,157.30
2022-12-14T20:41:14.385Z,164.15
2022-12-14T20:43:45.333Z,165.68
2022-12-14T20:46:39.062Z,158.45
2022-12-14T20:49:09.360Z,172.05
2022-12-14T20:51:37.860Z,178.13
2022-12-14T20:54:06.320Z,164.13
2022-12-14T20:56:35.020Z,159.27
2022-12-14T20:59:01.848Z,154.07
2022-12-14T21:01:31.975Z,169.40
2022-12-14T21:04:00.944Z,161.93
2022-12-14T21:06:28.097Z,171.57
2022-12-14T21:09:10.100Z,160.02
2022-12-14T21:11:56.866Z,159.13
2022-12-14T21:16:51.575Z,165.20
2022-12-14T21:19:18.861Z,171.05
2022-12-14T21:21:51.614Z,160.00
2022-12-14T21:24:52.724Z,168.57
2022-12-14T21:27:09.459Z,165.60
2022-12-14T21:29:36.092Z,165.23
2022-12-14T21:32:04.302Z,157.30
2022-12-14T21:34:31.898Z,163.63
2022-12-14T21:36:59.394Z,164.95
2022-12-14T21:39:26.359Z,161.13
2022-12-14T21:42:12.988Z,171.45
2022-12-14T21:44:42.175Z,171.40
2022-12-14T21:47:11.952Z,168.43
2022-12-14T21:49:40.142Z,169.25
2022-12-14T21:52:07.666Z,164.48
2022-12-14T21:54:35.095Z,156.88
2022-12-14T21:57:20.556Z,161.45
2022-12-14T21:59:47.271Z,156.27
2022-12-14T22:02:17.822Z,150.63
2022-12-14T22:04:46.175Z,161.85
2022-12-14T22:07:18.034Z,159.30
2022-12-14T22:09:45.352Z,156.10
2022-12-14T22:12:17.880Z,154.25
2022-12-14T22:14:48.926Z,159.88
2022-12-14T22:17:15.968Z,161.65
2022-12-14T22:19:42.611Z,151.82
2022-12-14T22:22:16.759Z,150.75
2022-12-14T22:24:44.716Z,143.93
2022-12-14T22:27:12.839Z,151.15
2022-12-14T22:29:39.666Z,140.15
2022-12-14T22:32:07.135Z,142.82
2022-12-14T22:34:34.439Z,148.05
2022-12-14T22:37:01.734Z,152.60
2022-12-14T22:39:28.846Z,154.10
2022-12-14T22:41:55.516Z,149.93
2022-12-14T22:44:22.261Z,143.52
2022-12-14T22:46:49.968Z,157.27
2022-12-14T22:49:19.165Z,149.38
2022-12-14T22:51:46.392Z,149.02
2022-12-14T22:54:24.319Z,145.70
2022-12-14T22:57:02.884Z,148.25
2022-12-14T22:59:53.023Z,146.43
2022-12-14T23:02:20.022Z,163.05
2022-12-14T23:04:46.901Z,152.88
2022-12-14T23:07:17.153Z,157.55
2022-12-14T23:10:02.398Z,143.32
2022-12-14T23:12:47.606Z,156.45
2022-12-14T23:15:32.773Z,155.50
2022-12-14T23:18:24.112Z,146.48
2022-12-14T23:21:09.979Z,141.95
2022-12-14T23:23:59.160Z,144.57
2022-12-14T23:26:44.636Z,146.50
2022-12-14T23:29:30.452Z,136.70
2022-12-14T23:32:15.686Z,140.93
2022-12-14T23:35:01.057Z,155.95
2022-12-14T23:37:46.382Z,148.90
2022-12-14T23:40:31.343Z,151.90
2022-12-14T23:43:16.727Z,136.43
2022-12-14T23:46:02.036Z,152.18
2022-12-14T23:48:47.578Z,142.55
2022-12-14T23:51:32.890Z,133.50
2022-12-14T23:54:18.036Z,136.10
2022-12-14T23:57:03.388Z,143.23
2022-12-14T23:59:49.438Z,139.95
